Ironwood, MI

2:32 AM CST on December 04, 2016 (GMT -0600)
w9kjb 1st ave weather | | Change Station

Elev 1480 ft 46.46 °N, 90.18 °W | Updated 46 seconds ago

Overcast
Overcast
24.1 °F
Feels Like 24 °F
N
1.0
Wind Variable Wind from SSE

Today
High -- | Low -- °F
--% Chance of Precip.
Yesterday
High -- | Low -- °F
Precip. -- in
Pressure 30.19 in
Visibility 10.0 miles
Clouds Overcast 2400 ft
Windchill 24 °F
Dew Point 23 °F
Humidity 96%
Rainfall 0.00 in
Snow Depth Not available.
7:27 AM 4:14 PM
Waxing Crescent, 21% visible
METAR KIWD 040756Z AUTO 00000KT 10SM OVC024 M03/M05 A3014 RMK AO2 SLP223 T10281050 FZRANO
Pressure 30.19 in
Visibility 10.0 miles
Clouds Overcast 2400 ft
Windchill 24 °F
Dew Point 23 °F
Humidity 96%
Rainfall 0.00 in
Snow Depth Not available.
7:27 AM 4:14 PM
Waxing Crescent, 21% visible
METAR KIWD 040756Z AUTO 00000KT 10SM OVC024 M03/M05 A3014 RMK AO2 SLP223 T10281050 FZRANO

10-Day Weather Forecast

Almanac

Astronomy

Dec. 04, 2016 Rise Set
Actual Time
Civil Twilight
Nautical Twilight
Astronomical Twilight
Moon
Length of Visible Light
Length of Day
Tomorrow will be .
, % of the Moon is Illuminated

Today's Extremes

State Highs State Lows

Community

WunderPhotos

Upload Photos

1,955,587 photos uploaded!

WunderBlog® & News

Nearby

Air Quality

  Air Quality AQ Index Pollutant
Not available.

Snow Depth

Station Depth Elevation

Earthquake Activity

City Distance Mag. Time & Date
Minimum magnitude displayed is 2.5.

Coastal Water Temperatures

Place Temperature

Stations

Nearby Weather Stations

Station Location Temp. Windchill Dew Point Humidity Wind Precip. Elev Updated Type
                   

Watches & Warnings

There are currently no watches in effect.